createdAt,value
2022-09-01T00:04:18.661Z,9.70
2022-09-01T00:06:45.597Z,8.30
2022-09-01T00:09:15.467Z,8.40
2022-09-01T00:11:47.929Z,9.30
2022-09-01T00:14:30.652Z,9.70
2022-09-01T00:16:59.996Z,9.70
2022-09-01T00:19:26.921Z,7.20
2022-09-01T00:21:53.547Z,7.50
2022-09-01T00:24:20.284Z,6.10
2022-09-01T00:26:47.811Z,6.90
2022-09-01T00:29:15.633Z,6.90
2022-09-01T00:31:42.484Z,7.20
2022-09-01T00:34:09.137Z,9.70
2022-09-01T00:36:36.603Z,7.10
2022-09-01T00:39:05.555Z,8.00
2022-09-01T00:41:34.269Z,10.10
2022-09-01T00:44:06.878Z,8.70
2022-09-01T00:49:46.636Z,7.50
2022-09-01T00:52:18.589Z,7.70
2022-09-01T00:54:49.953Z,6.80
2022-09-01T00:57:17.054Z,6.10
2022-09-01T00:59:57.724Z,5.60
2022-09-01T01:02:25.085Z,5.90
2022-09-01T01:04:52.147Z,7.20
2022-09-01T01:07:22.291Z,5.40
2022-09-01T01:09:49.979Z,5.80
2022-09-01T01:12:17.706Z,6.40
2022-09-01T01:14:47.396Z,7.70
2022-09-01T01:17:14.113Z,7.90
2022-09-01T01:20:01.445Z,5.10
2022-09-01T01:22:58.601Z,7.10
2022-09-01T01:25:26.358Z,8.20
2022-09-01T01:28:11.036Z,7.30
2022-09-01T01:30:41.432Z,6.90
2022-09-01T01:33:09.511Z,5.60
2022-09-01T01:35:41.793Z,9.30
2022-09-01T01:38:09.335Z,7.30
2022-09-01T01:40:37.681Z,9.80
2022-09-01T01:43:05.286Z,9.80
2022-09-01T01:45:32.185Z,10.70
2022-09-01T01:48:02.873Z,9.50
2022-09-01T01:50:35.078Z,10.70
2022-09-01T01:55:41.327Z,6.60
2022-09-01T01:58:09.307Z,9.80
2022-09-01T02:00:37.254Z,9.20
2022-09-01T02:03:04.707Z,10.70
2022-09-01T02:05:35.343Z,10.50
2022-09-01T02:08:06.046Z,8.60
2022-09-01T02:10:38.605Z,8.40
2022-09-01T02:15:41.831Z,8.20
2022-09-01T02:18:10.368Z,8.50
2022-09-01T02:20:37.514Z,7.20
2022-09-01T02:23:10.131Z,6.40
2022-09-01T02:26:05.195Z,6.00
2022-09-01T02:28:34.457Z,6.90
2022-09-01T02:31:02.140Z,7.20
2022-09-01T02:33:31.696Z,5.40
2022-09-01T02:36:02.456Z,6.40
2022-09-01T02:38:32.497Z,5.90
2022-09-01T02:41:02.984Z,6.90
2022-09-01T02:43:31.123Z,9.70
2022-09-01T02:46:00.632Z,6.70
2022-09-01T02:48:35.845Z,8.50
2022-09-01T02:51:16.021Z,5.90
2022-09-01T02:53:46.190Z,6.70
2022-09-01T02:56:13.737Z,10.60
2022-09-01T02:58:45.815Z,10.10
2022-09-01T03:01:26.847Z,10.60
2022-09-01T03:03:56.925Z,9.50
2022-09-01T03:06:24.825Z,12.00
2022-09-01T03:08:54.434Z,8.60
2022-09-01T03:11:23.242Z,11.20
2022-09-01T03:13:50.973Z,10.80
2022-09-01T03:16:18.441Z,10.40
2022-09-01T03:18:45.043Z,9.30
2022-09-01T03:21:16.530Z,6.90
2022-09-01T03:23:45.546Z,8.50
2022-09-01T03:26:14.518Z,6.90
2022-09-01T03:28:41.243Z,7.50
2022-09-01T03:31:08.912Z,8.00
2022-09-01T03:33:36.260Z,8.50
2022-09-01T03:36:05.009Z,8.00
2022-09-01T03:38:43.313Z,7.70
2022-09-01T03:41:12.481Z,7.90
2022-09-01T03:43:46.014Z,7.20
2022-09-01T03:46:19.596Z,6.80
2022-09-01T03:51:23.316Z,6.80
2022-09-01T03:53:56.933Z,10.20
2022-09-01T03:56:28.944Z,8.70
2022-09-01T03:58:58.302Z,9.10
2022-09-01T04:01:27.732Z,8.90
2022-09-01T04:03:55.231Z,11.40
2022-09-01T04:06:30.327Z,9.90
2022-09-01T04:09:02.004Z,9.10
2022-09-01T04:11:32.931Z,7.50
2022-09-01T04:14:00.467Z,9.70
2022-09-01T04:16:52.674Z,7.00
2022-09-01T04:19:26.462Z,6.60
2022-09-01T04:21:59.258Z,7.10
2022-09-01T04:24:32.074Z,6.80
2022-09-01T04:27:01.590Z,10.10
2022-09-01T04:29:30.847Z,9.10
2022-09-01T04:32:12.079Z,7.60
2022-09-01T04:37:20.907Z,8.80
2022-09-01T04:39:56.877Z,7.40
2022-09-01T04:42:28.646Z,9.60
2022-09-01T04:44:56.832Z,8.30
2022-09-01T04:47:29.548Z,7.70
2022-09-01T04:49:59.744Z,7.70
2022-09-01T04:52:27.748Z,7.50
2022-09-01T04:54:54.801Z,10.10
2022-09-01T04:57:22.061Z,7.60
2022-09-01T04:59:48.844Z,8.90
2022-09-01T05:02:16.155Z,11.20
2022-09-01T05:04:45.863Z,13.00
2022-09-01T05:07:13.602Z,10.90
2022-09-01T05:09:40.226Z,8.20
2022-09-01T05:12:40.626Z,8.90
2022-09-01T05:15:09.147Z,9.20
2022-09-01T05:17:37.914Z,10.10
2022-09-01T05:20:05.732Z,11.90
2022-09-01T05:22:35.069Z,12.30
2022-09-01T05:25:12.647Z,13.40
2022-09-01T05:27:48.929Z,12.20
2022-09-01T05:30:18.010Z,10.60
2022-09-01T05:32:48.553Z,10.70
2022-09-01T05:35:15.566Z,14.00
2022-09-01T05:37:42.863Z,11.70
2022-09-01T05:40:15.417Z,13.50
2022-09-01T05:42:45.912Z,13.50
2022-09-01T05:45:13.668Z,11.30
2022-09-01T05:47:41.286Z,15.10
2022-09-01T05:50:14.354Z,12.00
2022-09-01T05:52:47.307Z,15.20
2022-09-01T05:55:14.688Z,17.60
2022-09-01T05:57:42.510Z,17.40
2022-09-01T06:00:13.468Z,11.10
2022-09-01T06:02:42.231Z,11.50
2022-09-01T06:05:13.367Z,15.20
2022-09-01T06:07:42.227Z,14.40
2022-09-01T06:10:10.093Z,13.10
2022-09-01T06:12:37.194Z,13.20
2022-09-01T06:15:06.635Z,19.70
2022-09-01T06:17:35.894Z,16.60
2022-09-01T06:20:09.934Z,13.70
2022-09-01T06:22:38.967Z,15.20
2022-09-01T06:25:08.276Z,14.20
2022-09-01T06:27:43.798Z,15.40
2022-09-01T06:30:23.164Z,13.20
2022-09-01T06:33:00.673Z,13.20
2022-09-01T06:35:29.344Z,13.40
2022-09-01T06:37:57.886Z,13.30
2022-09-01T06:40:39.257Z,19.30
2022-09-01T06:43:11.438Z,12.50
2022-09-01T06:45:42.497Z,12.50
2022-09-01T06:48:15.273Z,18.70
2022-09-01T06:53:32.794Z,17.30
2022-09-01T06:56:02.389Z,21.90
2022-09-01T06:58:30.724Z,17.30
2022-09-01T07:00:57.564Z,17.40
2022-09-01T07:03:25.875Z,18.40
2022-09-01T07:06:59.075Z,18.00
2022-09-01T07:09:38.797Z,14.60
2022-09-01T07:12:26.635Z,15.10
2022-09-01T07:17:53.674Z,16.90
2022-09-01T07:20:24.551Z,18.80
2022-09-01T07:23:09.226Z,12.80
2022-09-01T07:26:02.229Z,12.20
2022-09-01T07:28:37.156Z,10.50
2022-09-01T07:33:54.547Z,8.80
2022-09-01T07:36:29.041Z,9.90
2022-09-01T07:48:02.701Z,9.90
2022-09-01T07:50:41.301Z,7.80
2022-09-01T07:53:30.870Z,8.50
2022-09-01T07:56:08.922Z,7.20
2022-09-01T07:58:41.340Z,8.10
2022-09-01T08:01:10.866Z,7.10
2022-09-01T08:03:40.837Z,7.80
2022-09-01T08:06:10.315Z,7.50
2022-09-01T08:08:39.408Z,6.50
2022-09-01T08:11:08.335Z,5.40
2022-09-01T08:13:42.015Z,6.10
2022-09-01T08:16:18.539Z,5.50
2022-09-01T08:18:49.381Z,5.40
2022-09-01T08:21:32.271Z,5.00
2022-09-01T08:24:01.917Z,5.90
2022-09-01T08:26:29.744Z,5.30
2022-09-01T08:28:56.665Z,6.50
2022-09-01T08:31:37.302Z,4.80
2022-09-01T08:34:04.970Z,5.10
2022-09-01T08:36:32.395Z,4.60
2022-09-01T08:38:59.407Z,4.30
2022-09-01T08:41:28.604Z,4.20
2022-09-01T08:44:10.371Z,5.00
2022-09-01T08:46:42.480Z,4.70
2022-09-01T08:49:25.843Z,4.60
2022-09-01T08:53:10.317Z,4.60
2022-09-01T08:55:46.913Z,4.70
2022-09-01T08:58:17.517Z,5.10
2022-09-01T09:01:11.650Z,3.90
2022-09-01T09:04:17.100Z,4.50
2022-09-01T09:07:10.248Z,5.50
2022-09-01T09:09:54.209Z,4.40
2022-09-01T09:12:50.769Z,5.40
2022-09-01T09:15:39.484Z,4.30
2022-09-01T09:18:39.922Z,5.10
2022-09-01T09:21:23.459Z,4.80
2022-09-01T09:24:22.693Z,4.40
2022-09-01T09:26:51.508Z,5.20
2022-09-01T09:29:20.013Z,6.40
2022-09-01T09:31:49.902Z,4.50
2022-09-01T09:34:38.411Z,4.30
2022-09-01T09:37:20.594Z,5.50
2022-09-01T09:43:01.635Z,4.00
2022-09-01T09:45:33.656Z,4.20
2022-09-01T09:48:07.135Z,4.30
2022-09-01T09:50:40.568Z,3.80
2022-09-01T09:53:25.681Z,4.10
2022-09-01T09:56:23.713Z,4.10
2022-09-01T09:58:52.372Z,4.00
2022-09-01T10:01:21.762Z,4.00
2022-09-01T10:03:54.345Z,4.30
2022-09-01T10:06:45.408Z,4.10
2022-09-01T10:09:33.751Z,4.40
2022-09-01T10:12:01.554Z,4.20
2022-09-01T10:14:51.800Z,4.50
2022-09-01T10:17:37.838Z,3.80
2022-09-01T10:20:20.705Z,3.80
2022-09-01T10:22:49.682Z,3.60
2022-09-01T10:25:21.330Z,3.60
2022-09-01T10:28:23.907Z,3.30
2022-09-01T10:30:53.342Z,3.50
2022-09-01T10:33:22.324Z,3.60
2022-09-01T10:35:52.015Z,3.40
2022-09-01T10:38:20.510Z,3.20
2022-09-01T10:41:06.534Z,3.30
2022-09-01T10:43:48.399Z,4.10
2022-09-01T10:46:38.971Z,3.40
2022-09-01T10:49:46.450Z,3.90
2022-09-01T10:52:41.532Z,3.40
2022-09-01T10:55:25.425Z,3.30
2022-09-01T10:58:09.594Z,3.70
2022-09-01T11:03:53.597Z,3.50
2022-09-01T11:09:42.998Z,3.70
2022-09-01T11:12:42.867Z,3.60
2022-09-01T11:15:16.934Z,3.20
2022-09-01T11:17:52.628Z,3.50
2022-09-01T11:20:28.414Z,3.40
2022-09-01T11:23:07.247Z,3.30
2022-09-01T11:25:39.680Z,3.30
2022-09-01T11:28:14.364Z,3.70
2022-09-01T11:30:51.321Z,3.30
2022-09-01T11:33:42.715Z,3.60
2022-09-01T11:36:25.405Z,3.40
2022-09-01T11:39:03.128Z,3.30
2022-09-01T11:41:35.427Z,3.50
2022-09-01T11:44:11.126Z,3.20
2022-09-01T11:46:38.381Z,3.60
2022-09-01T11:49:22.478Z,5.60
2022-09-01T11:51:49.253Z,3.90
2022-09-01T11:54:16.127Z,4.30
2022-09-01T11:56:43.002Z,4.00
2022-09-01T11:59:10.402Z,3.90
2022-09-01T12:01:39.920Z,3.90
2022-09-01T12:04:23.911Z,3.60
2022-09-01T12:07:01.720Z,3.50
2022-09-01T12:09:38.305Z,3.70
2022-09-01T12:12:07.402Z,3.60
2022-09-01T12:14:55.016Z,3.40
2022-09-01T12:17:21.318Z,3.60
2022-09-01T12:19:48.044Z,3.50
2022-09-01T12:22:20.949Z,3.70
2022-09-01T12:24:56.087Z,3.20
2022-09-01T12:27:22.722Z,3.20
2022-09-01T12:29:51.121Z,3.50
2022-09-01T12:32:19.256Z,3.40
2022-09-01T12:34:58.626Z,3.50
2022-09-01T12:37:26.638Z,3.70
2022-09-01T12:39:56.934Z,3.80
2022-09-01T12:42:40.607Z,3.60
2022-09-01T12:45:09.542Z,3.40
2022-09-01T12:47:36.582Z,3.70
2022-09-01T12:50:12.437Z,3.50
2022-09-01T12:53:12.751Z,3.70
2022-09-01T12:55:55.094Z,17.90
2022-09-01T13:01:16.918Z,5.30
2022-09-01T13:04:24.168Z,4.70
2022-09-01T13:06:52.923Z,6.70
2022-09-01T13:09:19.598Z,3.80
2022-09-01T13:12:06.265Z,4.30
2022-09-01T13:14:33.504Z,4.30
2022-09-01T13:17:00.667Z,4.20
2022-09-01T13:19:30.223Z,6.10
2022-09-01T13:21:57.746Z,4.20
2022-09-01T13:24:29.347Z,4.90
2022-09-01T13:29:45.112Z,3.60
2022-09-01T13:32:20.775Z,4.10
2022-09-01T13:34:52.003Z,4.90
2022-09-01T13:37:20.666Z,4.10
2022-09-01T13:39:47.940Z,3.30
2022-09-01T13:42:16.153Z,4.20
2022-09-01T13:44:44.146Z,3.60
2022-09-01T13:50:09.203Z,3.70
2022-09-01T13:52:38.889Z,3.90
2022-09-01T13:55:07.237Z,4.40
2022-09-01T13:57:36.587Z,4.80
2022-09-01T14:00:16.602Z,5.20
2022-09-01T14:02:52.478Z,4.40
2022-09-01T14:05:24.999Z,4.90
2022-09-01T14:07:52.804Z,4.70
2022-09-01T14:10:21.531Z,4.70
2022-09-01T14:12:49.709Z,4.20
2022-09-01T14:15:22.711Z,4.40
2022-09-01T14:17:55.944Z,4.50
2022-09-01T14:20:26.536Z,3.80
2022-09-01T14:22:54.274Z,4.20
2022-09-01T14:25:21.366Z,4.50
2022-09-01T14:27:49.296Z,4.90
2022-09-01T14:30:20.152Z,4.20
2022-09-01T14:32:46.883Z,5.40
2022-09-01T14:35:14.777Z,4.60
2022-09-01T14:37:41.593Z,4.30
2022-09-01T14:40:16.725Z,4.90
2022-09-01T14:42:48.496Z,21.60
2022-09-01T14:45:18.037Z,4.60
2022-09-01T14:47:50.002Z,5.30
2022-09-01T14:50:22.727Z,3.90
2022-09-01T14:52:55.841Z,3.90
2022-09-01T14:55:24.901Z,4.80
2022-09-01T14:57:52.106Z,3.50
2022-09-01T15:00:19.197Z,3.90
2022-09-01T15:02:47.092Z,3.60
2022-09-01T15:05:14.578Z,4.40
2022-09-01T15:07:42.516Z,3.50
2022-09-01T15:10:11.673Z,4.40
2022-09-01T15:12:43.032Z,3.30
2022-09-01T15:15:09.792Z,4.10
2022-09-01T15:17:36.488Z,4.50
2022-09-01T15:20:24.024Z,4.30
2022-09-01T15:22:51.087Z,3.40
2022-09-01T15:25:18.107Z,4.70
2022-09-01T15:28:06.485Z,4.90
2022-09-01T15:30:34.800Z,3.70
2022-09-01T15:33:02.819Z,4.60
2022-09-01T15:35:30.387Z,3.00
2022-09-01T15:37:57.597Z,4.00
2022-09-01T15:40:25.595Z,4.00
2022-09-01T15:42:52.536Z,4.00
2022-09-01T15:45:21.564Z,4.20
2022-09-01T15:47:48.808Z,4.00
2022-09-01T15:50:21.702Z,3.20
2022-09-01T15:52:54.516Z,4.00
2022-09-01T15:55:24.808Z,3.80
2022-09-01T15:57:54.382Z,3.30
2022-09-01T16:00:23.330Z,4.60
2022-09-01T16:02:51.135Z,4.50
2022-09-01T16:05:18.041Z,4.00
2022-09-01T16:07:45.375Z,4.60
2022-09-01T16:10:13.763Z,4.10
2022-09-01T16:12:46.008Z,3.90
2022-09-01T16:15:16.472Z,4.30
2022-09-01T16:17:58.448Z,5.90
2022-09-01T16:20:35.121Z,4.50
2022-09-01T16:23:19.602Z,3.60
2022-09-01T16:25:47.294Z,5.00
2022-09-01T16:28:20.315Z,4.80
2022-09-01T16:30:51.381Z,4.70
2022-09-01T16:33:21.042Z,4.30
2022-09-01T16:36:11.184Z,3.40
2022-09-01T16:38:53.389Z,3.70
2022-09-01T16:41:44.740Z,4.40
2022-09-01T16:44:33.649Z,3.30
2022-09-01T16:47:25.458Z,3.80
2022-09-01T16:50:16.199Z,4.40
2022-09-01T16:53:02.276Z,4.40
2022-09-01T16:55:44.214Z,3.80
2022-09-01T16:58:24.121Z,4.00
2022-09-01T17:00:53.985Z,3.50
2022-09-01T17:03:43.796Z,3.30
2022-09-01T17:06:51.516Z,3.40
2022-09-01T17:09:32.734Z,2.80
2022-09-01T17:12:22.731Z,3.90
2022-09-01T17:14:55.813Z,2.90
2022-09-01T17:17:32.719Z,2.90
2022-09-01T17:20:02.520Z,3.70
2022-09-01T17:22:31.127Z,3.00
2022-09-01T17:25:17.472Z,2.80
2022-09-01T17:27:58.846Z,2.60
2022-09-01T17:30:25.797Z,2.90
2022-09-01T17:33:17.339Z,3.00
2022-09-01T17:36:10.506Z,4.00
2022-09-01T17:38:47.594Z,4.00
2022-09-01T17:41:34.204Z,3.10
2022-09-01T17:44:20.737Z,2.60
2022-09-01T17:46:54.448Z,5.10
2022-09-01T17:49:21.219Z,3.80
2022-09-01T17:52:12.595Z,3.90
2022-09-01T17:55:02.118Z,5.00
2022-09-01T17:57:44.336Z,6.50
2022-09-01T18:00:17.728Z,4.90
2022-09-01T18:03:18.653Z,3.90
2022-09-01T18:05:59.160Z,4.80
2022-09-01T18:08:30.438Z,3.60
2022-09-01T18:11:18.337Z,4.60
2022-09-01T18:13:53.382Z,3.60
2022-09-01T18:16:26.434Z,3.20
2022-09-01T18:18:54.044Z,2.60
2022-09-01T18:21:25.967Z,4.60
2022-09-01T18:24:05.504Z,4.80
2022-09-01T18:26:38.772Z,4.20
2022-09-01T18:29:06.646Z,3.60
2022-09-01T18:31:33.666Z,3.10
2022-09-01T18:34:09.840Z,3.70
2022-09-01T18:36:53.616Z,3.70
2022-09-01T18:39:32.541Z,3.40
2022-09-01T18:42:26.812Z,3.60
2022-09-01T18:45:04.808Z,5.80
2022-09-01T18:47:40.049Z,3.90
2022-09-01T18:50:15.932Z,4.60
2022-09-01T18:52:49.074Z,4.00
2022-09-01T18:55:30.388Z,3.50
2022-09-01T18:58:05.750Z,5.00
2022-09-01T19:00:38.723Z,7.90
2022-09-01T19:03:13.310Z,10.10
2022-09-01T19:05:52.791Z,6.60
2022-09-01T19:08:31.630Z,5.10
2022-09-01T19:11:10.669Z,8.30
2022-09-01T19:14:05.570Z,12.20
2022-09-01T19:17:04.039Z,10.40
2022-09-01T19:19:40.516Z,4.50
2022-09-01T19:22:09.454Z,4.10
2022-09-01T19:24:46.183Z,3.90
2022-09-01T19:27:21.052Z,4.00
2022-09-01T19:29:56.170Z,3.30
2022-09-01T19:32:26.786Z,4.00
2022-09-01T19:34:58.467Z,3.60
2022-09-01T19:37:25.769Z,3.20
2022-09-01T19:39:54.425Z,4.10
2022-09-01T19:42:33.842Z,4.10
2022-09-01T19:45:19.777Z,3.30
2022-09-01T19:47:55.707Z,2.90
2022-09-01T19:50:38.365Z,3.10
2022-09-01T19:55:57.787Z,2.80
2022-09-01T19:58:34.918Z,2.80
2022-09-01T20:01:05.194Z,2.50
2022-09-01T20:04:09.162Z,2.70
2022-09-01T20:06:42.099Z,3.40
2022-09-01T20:09:19.048Z,3.20
2022-09-01T20:12:08.270Z,3.90
2022-09-01T20:14:48.761Z,2.50
2022-09-01T20:17:40.789Z,2.70
2022-09-01T20:20:16.410Z,3.00
2022-09-01T20:22:50.579Z,2.60
2022-09-01T20:25:21.337Z,3.50
2022-09-01T20:28:00.991Z,4.00
2022-09-01T20:30:40.418Z,2.60
2022-09-01T20:33:34.515Z,2.50
2022-09-01T20:36:27.776Z,2.50
2022-09-01T20:39:21.182Z,3.20
2022-09-01T20:41:55.613Z,3.60
2022-09-01T20:44:43.090Z,3.10
2022-09-01T20:47:11.973Z,2.50
2022-09-01T20:49:38.835Z,3.30
2022-09-01T20:52:17.897Z,3.30
2022-09-01T20:55:10.976Z,2.70
2022-09-01T20:57:47.704Z,3.50
2022-09-01T21:00:25.388Z,3.10
2022-09-01T21:03:36.204Z,2.80
2022-09-01T21:06:22.221Z,2.90
2022-09-01T21:09:01.481Z,2.20
2022-09-01T21:11:40.714Z,2.30
2022-09-01T21:14:16.941Z,2.50
2022-09-01T21:17:12.883Z,2.80
2022-09-01T21:19:45.642Z,2.00
2022-09-01T21:22:17.488Z,3.20
2022-09-01T21:24:48.000Z,2.50
2022-09-01T21:27:22.766Z,2.60
2022-09-01T21:29:55.572Z,2.10
2022-09-01T21:32:23.113Z,2.80
2022-09-01T21:34:49.980Z,2.80
2022-09-01T21:37:17.763Z,2.80
2022-09-01T21:39:44.727Z,2.20
2022-09-01T21:42:12.978Z,2.70
2022-09-01T21:44:40.590Z,3.30
2022-09-01T21:47:07.773Z,3.60
2022-09-01T21:49:34.410Z,3.20
2022-09-01T21:52:01.576Z,3.50
2022-09-01T21:54:28.199Z,2.80
2022-09-01T21:56:55.184Z,3.00
2022-09-01T21:59:22.685Z,2.60
2022-09-01T22:01:49.579Z,4.00
2022-09-01T22:04:17.827Z,3.20
2022-09-01T22:06:46.412Z,2.80
2022-09-01T22:09:21.286Z,2.70
2022-09-01T22:11:50.386Z,2.90
2022-09-01T22:14:18.561Z,3.00
2022-09-01T22:16:45.480Z,3.60
2022-09-01T22:19:12.234Z,3.60
2022-09-01T22:21:40.933Z,2.70
2022-09-01T22:24:08.641Z,3.70
2022-09-01T22:26:35.298Z,3.70
2022-09-01T22:29:05.238Z,2.80
2022-09-01T22:31:35.296Z,2.20
2022-09-01T22:34:01.934Z,3.80
2022-09-01T22:36:42.183Z,3.00
2022-09-01T22:39:09.939Z,2.90
2022-09-01T22:41:38.730Z,3.40
2022-09-01T22:44:06.529Z,2.70
2022-09-01T22:46:35.151Z,3.00
2022-09-01T22:49:03.487Z,2.30
2022-09-01T22:51:31.413Z,2.60
2022-09-01T22:53:58.200Z,3.10
2022-09-01T22:56:28.359Z,2.90
2022-09-01T22:58:57.471Z,2.70
2022-09-01T23:01:29.578Z,2.80
2022-09-01T23:04:01.187Z,3.10
2022-09-01T23:06:30.115Z,2.90
2022-09-01T23:09:00.024Z,3.10
2022-09-01T23:11:27.624Z,2.80
2022-09-01T23:13:54.741Z,2.90
2022-09-01T23:16:22.787Z,2.90
2022-09-01T23:18:50.727Z,2.70
2022-09-01T23:21:20.606Z,2.60
2022-09-01T23:23:47.652Z,2.70
2022-09-01T23:26:15.377Z,3.10
2022-09-01T23:28:44.338Z,3.40
2022-09-01T23:31:15.964Z,3.30
2022-09-01T23:33:43.138Z,2.90
2022-09-01T23:36:12.109Z,2.70
2022-09-01T23:38:39.861Z,2.50
2022-09-01T23:41:10.700Z,2.90
2022-09-01T23:43:37.573Z,2.90
2022-09-01T23:46:05.630Z,3.40
2022-09-01T23:48:33.023Z,2.60
2022-09-01T23:51:07.982Z,2.90
2022-09-01T23:53:36.505Z,2.50
2022-09-01T23:56:09.384Z,3.00
